Lakeview, North Carolina
Current Conditions -  °F | °C
As of 9:35 AM on Friday 28 Nov 2014 (Local Time) from KSOP Reporting Station
Clear Clear  
Wind Chill: 34°   Ceiling: Unl
Heat Index: 39°   Visibility: 10mi
Dew Point: -9°   Wind: 7mph
Humidity: 12%   Direction: 350°N
Pressure: 30.39"   Gusts: NA
Location:  35.24°N, 79.31°W
Report Text: KSOP 281435Z AUTO 35006KT 10SM CLR 04/M23 A3039 RMK AO1
Loading
Personal Weather Stations






























Interactive Weather Map New forecast layout! Learn more

10-Day Weather Forecast

Advertisements
Track Severe Weather on mobile